createdAt,value
2023-03-31T00:03:43.665Z,21.71
2023-03-31T00:06:14.175Z,21.69
2023-03-31T00:08:42.477Z,21.71
2023-03-31T00:11:10.794Z,21.73
2023-03-31T00:13:39.590Z,21.76
2023-03-31T00:16:10.976Z,21.77
2023-03-31T00:18:39.329Z,21.79
2023-03-31T00:21:14.059Z,21.81
2023-03-31T00:23:42.360Z,21.82
2023-03-31T00:26:10.561Z,21.82
2023-03-31T00:28:39.215Z,21.83
2023-03-31T00:31:07.336Z,21.85
2023-03-31T00:33:35.606Z,21.89
2023-03-31T00:36:04.729Z,22.00
2023-03-31T00:38:34.341Z,22.11
2023-03-31T00:41:03.702Z,22.19
2023-03-31T00:43:35.001Z,22.26
2023-03-31T00:46:12.552Z,22.30
2023-03-31T00:48:54.401Z,22.31
2023-03-31T00:51:27.862Z,22.32
2023-03-31T00:54:06.266Z,22.30
2023-03-31T00:56:42.117Z,22.28
2023-03-31T00:59:12.436Z,22.26
2023-03-31T01:01:45.822Z,22.26
2023-03-31T01:04:16.117Z,22.27
2023-03-31T01:06:55.426Z,22.27
2023-03-31T01:09:25.089Z,22.28
2023-03-31T01:11:53.384Z,22.29
2023-03-31T01:14:21.511Z,22.30
2023-03-31T01:16:49.876Z,22.32
2023-03-31T01:19:40.595Z,22.33
2023-03-31T01:22:41.197Z,22.33
2023-03-31T01:25:48.849Z,22.35
2023-03-31T01:28:23.898Z,22.39
2023-03-31T01:31:08.941Z,22.41
2023-03-31T01:33:56.111Z,22.40
2023-03-31T01:36:51.665Z,22.40
2023-03-31T01:39:57.512Z,22.39
2023-03-31T01:42:42.392Z,22.42
2023-03-31T01:45:36.952Z,22.45
2023-03-31T01:48:15.979Z,22.48
2023-03-31T01:51:00.715Z,22.49
2023-03-31T01:54:13.572Z,22.50
2023-03-31T01:56:55.493Z,22.47
2023-03-31T01:59:39.550Z,22.43
2023-03-31T02:02:20.934Z,22.38
2023-03-31T02:04:58.900Z,22.32
2023-03-31T02:07:39.624Z,22.28
2023-03-31T02:10:11.298Z,22.26
2023-03-31T02:12:42.650Z,22.24
2023-03-31T02:15:16.209Z,22.20
2023-03-31T02:17:50.137Z,22.21
2023-03-31T02:20:21.687Z,22.23
2023-03-31T02:22:55.504Z,22.24
2023-03-31T02:25:31.485Z,22.24
2023-03-31T02:28:10.724Z,22.23
2023-03-31T02:31:06.541Z,22.21
2023-03-31T02:33:35.190Z,22.19
2023-03-31T02:36:04.510Z,22.17
2023-03-31T02:38:39.172Z,22.15
2023-03-31T02:41:08.766Z,22.13
2023-03-31T02:43:37.026Z,22.11
2023-03-31T02:46:05.707Z,22.14
2023-03-31T02:48:48.445Z,22.21
2023-03-31T02:51:44.276Z,22.31
2023-03-31T02:54:21.432Z,22.37
2023-03-31T02:56:58.789Z,22.40
2023-03-31T02:59:29.686Z,22.41
2023-03-31T03:02:22.696Z,22.42
2023-03-31T03:04:56.977Z,22.41
2023-03-31T03:07:45.338Z,22.38
2023-03-31T03:10:19.527Z,22.35
2023-03-31T03:13:02.750Z,22.32
2023-03-31T03:15:36.847Z,22.30
2023-03-31T03:18:06.660Z,22.29
2023-03-31T03:20:35.018Z,22.28
2023-03-31T03:23:03.179Z,22.26
2023-03-31T03:25:31.560Z,22.25
2023-03-31T03:28:00.371Z,22.24
2023-03-31T03:30:28.407Z,22.22
2023-03-31T03:32:56.941Z,22.22
2023-03-31T03:35:25.636Z,22.22
2023-03-31T03:37:53.811Z,22.20
2023-03-31T03:40:22.159Z,22.19
2023-03-31T03:42:50.371Z,22.17
2023-03-31T03:45:18.917Z,22.16
2023-03-31T03:47:47.722Z,22.15
2023-03-31T03:50:16.544Z,22.14
2023-03-31T03:52:44.983Z,22.12
2023-03-31T03:55:14.010Z,22.12
2023-03-31T03:57:42.690Z,22.13
2023-03-31T04:00:11.187Z,22.13
2023-03-31T04:02:40.000Z,22.14
2023-03-31T04:05:10.027Z,22.18
2023-03-31T04:07:38.317Z,22.21
2023-03-31T04:10:07.706Z,22.23
2023-03-31T04:12:36.250Z,22.24
2023-03-31T04:15:05.554Z,22.24
2023-03-31T04:17:34.520Z,22.24
2023-03-31T04:20:08.863Z,22.24
2023-03-31T04:22:38.256Z,22.24
2023-03-31T04:25:12.099Z,22.24
2023-03-31T04:27:41.847Z,22.22
2023-03-31T04:30:11.070Z,22.20
2023-03-31T04:32:39.196Z,22.18
2023-03-31T04:35:07.774Z,22.16
2023-03-31T04:37:36.604Z,22.13
2023-03-31T04:40:05.366Z,22.12
2023-03-31T04:42:33.905Z,22.10
2023-03-31T04:45:03.494Z,22.08
2023-03-31T04:47:31.778Z,22.06
2023-03-31T04:50:00.071Z,22.05
2023-03-31T04:52:28.417Z,22.02
2023-03-31T04:54:56.663Z,21.99
2023-03-31T04:57:24.898Z,21.97
2023-03-31T04:59:53.764Z,21.94
2023-03-31T05:02:24.341Z,21.92
2023-03-31T05:05:00.889Z,21.90
2023-03-31T05:07:28.986Z,21.89
2023-03-31T05:09:57.106Z,21.88
2023-03-31T05:12:25.665Z,21.88
2023-03-31T05:14:53.852Z,21.89
2023-03-31T05:17:22.568Z,21.88
2023-03-31T05:19:50.907Z,21.88
2023-03-31T05:22:19.060Z,21.87
2023-03-31T05:24:47.839Z,21.86
2023-03-31T05:27:16.522Z,21.84
2023-03-31T05:29:44.799Z,21.83
2023-03-31T05:32:12.891Z,21.81
2023-03-31T05:34:41.336Z,21.79
2023-03-31T05:37:09.492Z,21.77
2023-03-31T05:39:37.497Z,21.76
2023-03-31T05:42:05.978Z,21.75
2023-03-31T05:44:34.189Z,21.73
2023-03-31T05:47:02.399Z,21.72
2023-03-31T05:49:30.609Z,21.72
2023-03-31T05:51:58.760Z,21.71
2023-03-31T05:54:28.094Z,21.70
2023-03-31T05:56:56.666Z,21.68
2023-03-31T05:59:24.896Z,21.68
2023-03-31T06:01:53.154Z,21.67
2023-03-31T06:04:22.035Z,21.66
2023-03-31T06:06:50.463Z,21.66
2023-03-31T06:09:18.766Z,21.65
2023-03-31T06:11:47.922Z,21.66
2023-03-31T06:14:17.767Z,21.67
2023-03-31T06:16:46.209Z,21.69
2023-03-31T06:19:14.650Z,21.70
2023-03-31T06:21:42.945Z,21.71
2023-03-31T06:24:11.349Z,21.74
2023-03-31T06:26:40.151Z,21.80
2023-03-31T06:29:08.352Z,21.89
2023-03-31T06:31:36.470Z,22.16
2023-03-31T06:34:05.386Z,22.70
2023-03-31T06:36:33.597Z,23.44
2023-03-31T06:39:01.826Z,24.44
2023-03-31T06:41:30.234Z,25.64
2023-03-31T06:43:58.370Z,26.70
2023-03-31T06:46:26.649Z,27.39
2023-03-31T06:48:55.246Z,27.91
2023-03-31T06:51:23.502Z,28.50
2023-03-31T06:53:51.857Z,29.30
2023-03-31T06:56:20.192Z,30.01
2023-03-31T06:58:48.429Z,30.32
2023-03-31T07:01:17.721Z,30.27
2023-03-31T07:03:46.229Z,30.04
2023-03-31T07:06:14.725Z,29.72
2023-03-31T07:08:43.131Z,29.38
2023-03-31T07:11:11.679Z,29.06
2023-03-31T07:13:40.123Z,28.83
2023-03-31T07:16:08.695Z,28.66
2023-03-31T07:18:37.779Z,28.54
2023-03-31T07:21:09.080Z,28.47
2023-03-31T07:23:38.769Z,28.43
2023-03-31T07:26:06.986Z,28.41
2023-03-31T07:28:35.796Z,28.37
2023-03-31T07:31:11.362Z,28.35
2023-03-31T07:33:40.068Z,28.35
2023-03-31T07:36:13.313Z,28.36
2023-03-31T07:38:45.836Z,28.37
2023-03-31T07:41:20.591Z,28.37
2023-03-31T07:43:50.582Z,28.38
2023-03-31T07:46:25.209Z,28.39
2023-03-31T07:48:55.740Z,28.40
2023-03-31T07:51:26.667Z,28.41
2023-03-31T07:53:55.035Z,28.42
2023-03-31T07:56:25.300Z,28.43
2023-03-31T07:58:56.863Z,28.41
2023-03-31T08:01:26.548Z,28.37
2023-03-31T08:03:56.107Z,28.34
2023-03-31T08:06:26.151Z,28.34
2023-03-31T08:08:56.202Z,28.34
2023-03-31T08:11:24.956Z,28.30
2023-03-31T08:13:53.749Z,28.26
2023-03-31T08:16:22.092Z,28.24
2023-03-31T08:18:50.906Z,28.22
2023-03-31T08:21:21.643Z,28.16
2023-03-31T08:23:54.572Z,28.08
2023-03-31T08:26:23.433Z,27.99
2023-03-31T08:28:52.711Z,27.93
2023-03-31T08:31:22.315Z,27.92
2023-03-31T08:33:50.593Z,27.96
2023-03-31T08:36:19.318Z,28.02
2023-03-31T08:38:48.046Z,28.08
2023-03-31T08:41:36.514Z,28.11
2023-03-31T08:44:27.351Z,28.08
2023-03-31T08:46:59.109Z,28.08
2023-03-31T08:49:31.327Z,28.09
2023-03-31T08:52:04.467Z,28.13
2023-03-31T08:54:58.504Z,28.20
2023-03-31T08:57:48.508Z,28.28
2023-03-31T09:00:18.805Z,28.34
2023-03-31T09:03:07.079Z,28.38
2023-03-31T09:06:12.626Z,28.44
2023-03-31T09:08:44.379Z,28.52
2023-03-31T09:11:22.958Z,28.59
2023-03-31T09:14:09.438Z,28.66
2023-03-31T09:16:40.961Z,28.70
2023-03-31T09:19:36.370Z,28.72
2023-03-31T09:22:14.520Z,28.73
2023-03-31T09:25:10.934Z,28.74
2023-03-31T09:27:42.309Z,28.83
2023-03-31T09:30:22.154Z,28.96
2023-03-31T09:32:55.112Z,29.08
2023-03-31T09:35:26.457Z,29.13
2023-03-31T09:37:54.957Z,29.19
2023-03-31T09:40:27.067Z,29.27
2023-03-31T09:43:08.161Z,29.38
2023-03-31T09:45:36.840Z,29.50
2023-03-31T09:48:12.717Z,29.63
2023-03-31T09:50:55.852Z,29.78
2023-03-31T09:53:40.390Z,29.92
2023-03-31T09:56:09.868Z,30.05
2023-03-31T09:58:45.873Z,30.08
2023-03-31T10:01:17.836Z,30.08
2023-03-31T10:04:00.885Z,30.10
2023-03-31T10:06:29.535Z,30.16
2023-03-31T10:09:03.225Z,30.21
2023-03-31T10:11:32.354Z,30.27
2023-03-31T10:14:15.603Z,30.23
2023-03-31T10:16:59.327Z,30.01
2023-03-31T10:19:33.179Z,29.78
2023-03-31T10:22:03.212Z,29.66
2023-03-31T10:24:45.883Z,29.68
2023-03-31T10:27:32.093Z,29.73
2023-03-31T10:30:06.699Z,29.82
2023-03-31T10:32:41.277Z,29.92
2023-03-31T10:35:27.373Z,30.01
2023-03-31T10:37:59.484Z,30.13
2023-03-31T10:40:30.718Z,30.27
2023-03-31T10:43:10.118Z,30.43
2023-03-31T10:46:01.029Z,30.57
2023-03-31T10:48:40.295Z,30.68
2023-03-31T10:51:27.656Z,30.74
2023-03-31T10:54:02.012Z,30.70
2023-03-31T10:56:48.689Z,30.67
2023-03-31T10:59:26.885Z,30.65
2023-03-31T11:02:01.183Z,30.68
2023-03-31T11:04:35.306Z,30.72
2023-03-31T11:07:09.606Z,30.78
2023-03-31T11:10:11.865Z,30.84
2023-03-31T11:13:00.552Z,30.86
2023-03-31T11:16:05.642Z,30.86
2023-03-31T11:19:16.017Z,30.89
2023-03-31T11:22:21.093Z,30.97
2023-03-31T11:25:15.181Z,31.02
2023-03-31T11:27:58.875Z,31.08
2023-03-31T11:30:38.487Z,31.16
2023-03-31T11:33:35.240Z,31.21
2023-03-31T11:36:23.110Z,31.23
2023-03-31T11:39:27.836Z,31.20
2023-03-31T11:42:01.250Z,31.13
2023-03-31T11:44:40.420Z,31.09
2023-03-31T11:47:19.196Z,31.02
2023-03-31T11:49:53.571Z,30.98
2023-03-31T11:52:34.938Z,30.98
2023-03-31T11:55:17.229Z,31.08
2023-03-31T11:58:11.639Z,31.29
2023-03-31T12:00:48.991Z,31.37
2023-03-31T12:03:29.358Z,31.36
2023-03-31T12:06:05.624Z,31.36
2023-03-31T12:09:01.515Z,31.41
2023-03-31T12:11:54.480Z,31.52
2023-03-31T12:15:00.680Z,31.63
2023-03-31T12:17:30.141Z,31.77
2023-03-31T12:20:03.505Z,31.85
2023-03-31T12:22:40.305Z,31.96
2023-03-31T12:25:22.033Z,32.06
2023-03-31T12:27:50.512Z,32.11
2023-03-31T12:30:31.683Z,32.11
2023-03-31T12:33:31.119Z,32.12
2023-03-31T12:36:33.378Z,32.12
2023-03-31T12:39:23.223Z,32.19
2023-03-31T12:41:54.259Z,32.27
2023-03-31T12:44:36.100Z,32.31
2023-03-31T12:47:23.004Z,32.36
2023-03-31T12:49:59.780Z,32.41
2023-03-31T12:52:49.874Z,32.47
2023-03-31T12:55:29.561Z,32.30
2023-03-31T12:58:27.877Z,31.94
2023-03-31T13:01:15.939Z,31.48
2023-03-31T13:04:07.339Z,31.06
2023-03-31T13:06:38.667Z,30.38
2023-03-31T13:09:43.451Z,29.74
2023-03-31T13:12:21.837Z,29.54
2023-03-31T13:14:52.817Z,29.61
2023-03-31T13:17:57.254Z,29.64
2023-03-31T13:20:37.299Z,29.60
2023-03-31T13:23:12.497Z,29.53
2023-03-31T13:25:45.203Z,29.46
2023-03-31T13:28:24.574Z,29.45
2023-03-31T13:30:57.084Z,29.47
2023-03-31T13:33:29.058Z,29.48
2023-03-31T13:36:18.991Z,29.33
2023-03-31T13:39:19.678Z,29.07
2023-03-31T13:42:25.950Z,28.80
2023-03-31T13:45:31.655Z,28.61
2023-03-31T13:48:28.113Z,28.44
2023-03-31T13:51:15.161Z,28.31
2023-03-31T13:54:37.744Z,28.12
2023-03-31T13:57:40.160Z,27.88
2023-03-31T14:00:32.950Z,27.60
2023-03-31T14:03:13.152Z,27.33
2023-03-31T14:06:02.796Z,27.09
2023-03-31T14:08:43.340Z,26.86
2023-03-31T14:11:30.828Z,26.68
2023-03-31T14:14:03.164Z,26.61
2023-03-31T14:16:46.637Z,26.51
2023-03-31T14:19:29.701Z,26.44
2023-03-31T14:22:22.951Z,26.41
2023-03-31T14:25:06.425Z,26.49
2023-03-31T14:27:50.092Z,26.54
2023-03-31T14:30:27.229Z,26.52
2023-03-31T14:33:21.598Z,26.42
2023-03-31T14:36:09.913Z,26.41
2023-03-31T14:38:38.152Z,26.50
2023-03-31T14:41:06.414Z,26.61
2023-03-31T14:43:40.444Z,26.65
2023-03-31T14:46:10.004Z,26.59
2023-03-31T14:48:46.297Z,26.55
2023-03-31T14:51:16.600Z,26.52
2023-03-31T14:53:44.738Z,26.49
2023-03-31T14:56:17.260Z,26.47
2023-03-31T14:58:50.933Z,26.45
2023-03-31T15:01:29.713Z,26.41
2023-03-31T15:03:58.432Z,26.37
2023-03-31T15:06:28.096Z,26.23
2023-03-31T15:08:58.431Z,26.08
2023-03-31T15:11:28.327Z,25.99
2023-03-31T15:14:05.034Z,25.89
2023-03-31T15:16:44.394Z,25.92
2023-03-31T15:19:15.921Z,25.98
2023-03-31T15:21:55.478Z,26.03
2023-03-31T15:24:25.657Z,26.02
2023-03-31T15:27:20.557Z,25.95
2023-03-31T15:29:55.389Z,25.90
2023-03-31T15:32:27.887Z,25.88
2023-03-31T15:35:07.793Z,25.89
2023-03-31T15:37:44.404Z,25.86
2023-03-31T15:40:26.033Z,25.89
2023-03-31T15:43:06.714Z,25.91
2023-03-31T15:45:48.881Z,25.89
2023-03-31T15:48:30.104Z,25.79
2023-03-31T15:51:08.171Z,25.61
2023-03-31T15:53:45.004Z,25.45
2023-03-31T15:56:44.129Z,25.32
2023-03-31T15:59:34.387Z,25.12
2023-03-31T16:02:13.974Z,24.89
2023-03-31T16:04:42.175Z,24.76
2023-03-31T16:07:33.348Z,24.69
2023-03-31T16:10:15.986Z,24.63
2023-03-31T16:12:54.958Z,24.58
2023-03-31T16:15:38.064Z,24.50
2023-03-31T16:18:25.364Z,24.37
2023-03-31T16:20:56.450Z,24.34
2023-03-31T16:23:35.196Z,24.38
2023-03-31T16:26:03.661Z,24.38
2023-03-31T16:28:35.957Z,24.33
2023-03-31T16:31:07.703Z,24.25
2023-03-31T16:34:07.841Z,24.13
2023-03-31T16:36:36.108Z,24.00
2023-03-31T16:39:06.309Z,23.88
2023-03-31T16:41:36.721Z,23.79
2023-03-31T16:44:06.208Z,23.75
2023-03-31T16:46:34.287Z,23.77
2023-03-31T16:49:02.672Z,23.81
2023-03-31T16:51:31.237Z,23.88
2023-03-31T16:53:59.851Z,23.99
2023-03-31T16:56:28.591Z,24.08
2023-03-31T16:58:57.010Z,24.23
2023-03-31T17:01:25.348Z,24.40
2023-03-31T17:03:54.652Z,24.58
2023-03-31T17:06:23.185Z,24.75
2023-03-31T17:08:51.349Z,24.90
2023-03-31T17:11:19.775Z,25.01
2023-03-31T17:13:47.844Z,25.08
2023-03-31T17:19:04.979Z,25.15
2023-03-31T17:21:33.538Z,25.15
2023-03-31T17:24:03.172Z,25.13
2023-03-31T17:26:31.546Z,25.09
2023-03-31T17:29:00.382Z,24.97
2023-03-31T17:31:28.689Z,24.83
2023-03-31T17:33:57.763Z,24.71
2023-03-31T17:36:26.169Z,24.61
2023-03-31T17:38:54.619Z,24.50
2023-03-31T17:41:22.988Z,24.41
2023-03-31T17:43:51.242Z,24.36
2023-03-31T17:46:19.815Z,24.34
2023-03-31T17:48:48.230Z,24.33
2023-03-31T17:51:18.905Z,24.34
2023-03-31T17:53:48.206Z,24.35
2023-03-31T17:56:17.691Z,24.36
2023-03-31T17:58:46.839Z,24.38
2023-03-31T18:01:15.913Z,24.42
2023-03-31T18:03:44.009Z,24.41
2023-03-31T18:06:14.598Z,24.40
2023-03-31T18:08:43.256Z,24.35
2023-03-31T18:11:12.226Z,24.28
2023-03-31T18:13:41.599Z,24.22
2023-03-31T18:16:11.113Z,24.17
2023-03-31T18:18:40.243Z,24.18
2023-03-31T18:21:11.117Z,24.27
2023-03-31T18:23:40.712Z,24.42
2023-03-31T18:26:11.739Z,24.57
2023-03-31T18:28:40.482Z,24.73
2023-03-31T18:31:12.170Z,24.90
2023-03-31T18:33:41.443Z,25.09
2023-03-31T18:36:18.606Z,25.23
2023-03-31T18:38:47.703Z,25.36
2023-03-31T18:41:17.163Z,25.47
2023-03-31T18:43:45.394Z,25.54
2023-03-31T18:46:14.073Z,25.59
2023-03-31T18:48:42.369Z,25.64
2023-03-31T18:51:12.658Z,25.70
2023-03-31T18:53:40.953Z,25.74
2023-03-31T18:56:09.003Z,25.76
2023-03-31T18:58:37.303Z,25.78
2023-03-31T19:01:05.790Z,25.80
2023-03-31T19:03:36.575Z,25.81
2023-03-31T19:06:08.445Z,25.82
2023-03-31T19:08:37.354Z,25.83
2023-03-31T19:11:12.184Z,25.83
2023-03-31T19:13:41.393Z,25.83
2023-03-31T19:16:11.016Z,25.83
2023-03-31T19:18:39.871Z,25.82
2023-03-31T19:21:08.368Z,25.80
2023-03-31T19:23:36.428Z,25.78
2023-03-31T19:26:06.028Z,25.76
2023-03-31T19:28:34.584Z,25.74
2023-03-31T19:31:04.561Z,25.73
2023-03-31T19:33:33.250Z,25.71
2023-03-31T19:36:01.347Z,25.69
2023-03-31T19:38:29.497Z,25.66
2023-03-31T19:40:58.402Z,25.65
2023-03-31T19:43:27.686Z,25.63
2023-03-31T19:45:58.502Z,25.60
2023-03-31T19:48:28.862Z,25.56
2023-03-31T19:50:58.934Z,25.52
2023-03-31T19:53:27.395Z,25.49
2023-03-31T19:56:00.579Z,25.45
2023-03-31T19:58:30.700Z,25.44
2023-03-31T20:00:58.918Z,25.43
2023-03-31T20:03:27.611Z,25.41
2023-03-31T20:06:07.642Z,25.40
2023-03-31T20:08:37.001Z,25.39
2023-03-31T20:11:07.535Z,25.37
2023-03-31T20:13:35.736Z,25.36
2023-03-31T20:16:19.725Z,25.35
2023-03-31T20:18:58.233Z,25.34
2023-03-31T20:21:29.264Z,25.32
2023-03-31T20:23:58.108Z,25.31
2023-03-31T20:26:29.761Z,25.30
2023-03-31T20:28:59.559Z,25.28
2023-03-31T20:31:30.587Z,25.27
2023-03-31T20:34:08.735Z,25.26
2023-03-31T20:36:36.852Z,25.24
2023-03-31T20:39:06.271Z,25.22
2023-03-31T20:41:36.583Z,25.20
2023-03-31T20:44:06.887Z,25.19
2023-03-31T20:46:35.135Z,25.17
2023-03-31T20:49:04.051Z,25.16
2023-03-31T20:51:34.595Z,25.14
2023-03-31T20:54:03.389Z,25.13
2023-03-31T20:56:34.948Z,25.10
2023-03-31T20:59:04.685Z,25.08
2023-03-31T21:01:34.933Z,25.05
2023-03-31T21:04:06.993Z,25.03
2023-03-31T21:06:42.010Z,25.01
2023-03-31T21:09:11.635Z,24.98
2023-03-31T21:11:40.724Z,24.96
2023-03-31T21:14:15.736Z,24.95
2023-03-31T21:16:45.000Z,24.91
2023-03-31T21:19:13.474Z,24.90
2023-03-31T21:21:41.820Z,24.89
2023-03-31T21:24:13.821Z,24.88
2023-03-31T21:26:42.519Z,24.85
2023-03-31T21:29:11.041Z,24.83
2023-03-31T21:31:39.256Z,24.81
2023-03-31T21:34:08.200Z,24.80
2023-03-31T21:36:36.580Z,24.78
2023-03-31T21:39:04.680Z,24.76
2023-03-31T21:41:33.207Z,24.75
2023-03-31T21:44:02.772Z,24.73
2023-03-31T21:46:33.518Z,24.70
2023-03-31T21:49:03.421Z,24.68
2023-03-31T21:51:31.989Z,24.66
2023-03-31T21:54:00.483Z,24.64
2023-03-31T21:56:32.118Z,24.63
2023-03-31T21:59:02.375Z,24.62
2023-03-31T22:01:31.118Z,24.61
2023-03-31T22:03:59.392Z,24.59
2023-03-31T22:06:28.892Z,24.57
2023-03-31T22:08:57.100Z,24.55
2023-03-31T22:11:25.277Z,24.53
2023-03-31T22:13:53.517Z,24.50
2023-03-31T22:16:23.354Z,24.48
2023-03-31T22:18:51.695Z,24.45
2023-03-31T22:21:25.629Z,24.44
2023-03-31T22:23:58.863Z,24.42
2023-03-31T22:26:32.109Z,24.40
2023-03-31T22:29:00.767Z,24.37
2023-03-31T22:31:29.340Z,24.35
2023-03-31T22:33:57.811Z,24.33
2023-03-31T22:36:26.171Z,24.32
2023-03-31T22:38:55.290Z,24.30
2023-03-31T22:41:23.588Z,24.27
2023-03-31T22:43:51.698Z,24.25
2023-03-31T22:46:19.913Z,24.23
2023-03-31T22:48:49.676Z,24.21
2023-03-31T22:51:18.452Z,24.19
2023-03-31T22:53:51.417Z,24.16
2023-03-31T22:56:21.285Z,24.15
2023-03-31T22:58:53.712Z,24.12
2023-03-31T23:01:22.192Z,24.10
2023-03-31T23:03:50.746Z,24.07
2023-03-31T23:06:19.339Z,24.06
2023-03-31T23:08:47.592Z,24.03
2023-03-31T23:11:16.442Z,24.02
2023-03-31T23:13:45.544Z,24.00
2023-03-31T23:16:21.793Z,23.97
2023-03-31T23:18:51.645Z,23.96
2023-03-31T23:21:25.869Z,23.94
2023-03-31T23:23:57.614Z,23.92
2023-03-31T23:26:26.660Z,23.90
2023-03-31T23:28:55.792Z,23.89
2023-03-31T23:31:27.945Z,23.87
2023-03-31T23:34:00.526Z,23.84
2023-03-31T23:36:29.538Z,23.82
2023-03-31T23:38:57.875Z,23.81
2023-03-31T23:41:25.924Z,23.79
2023-03-31T23:43:54.861Z,23.77
2023-03-31T23:46:23.415Z,23.75
2023-03-31T23:48:52.560Z,23.74
2023-03-31T23:51:20.924Z,23.73
2023-03-31T23:53:49.370Z,23.72
2023-03-31T23:56:17.858Z,23.70
2023-03-31T23:58:45.942Z,23.67
